sensor_id;sensor_type;location;lat;lon;timestamp;temperature;humidity
31003;DHT22;23051;-6.372;106.786;2024-01-15T00:00:22;26.70;94.00
31003;DHT22;23051;-6.372;106.786;2024-01-15T00:02:23;26.70;94.00
31003;DHT22;23051;-6.372;106.786;2024-01-15T00:04:24;26.70;94.00
31003;DHT22;23051;-6.372;106.786;2024-01-15T00:06:26;26.70;93.90
31003;DHT22;23051;-6.372;106.786;2024-01-15T00:08:31;26.80;93.90
31003;DHT22;23051;-6.372;106.786;2024-01-15T00:10:32;26.80;93.90
31003;DHT22;23051;-6.372;106.786;2024-01-15T00:12:33;26.80;93.90
31003;DHT22;23051;-6.372;106.786;2024-01-15T00:14:36;26.80;93.80
31003;DHT22;23051;-6.372;106.786;2024-01-15T00:16:39;26.90;93.90
31003;DHT22;23051;-6.372;106.786;2024-01-15T00:18:40;26.90;93.80
31003;DHT22;23051;-6.372;106.786;2024-01-15T00:20:44;26.90;93.80
31003;DHT22;23051;-6.372;106.786;2024-01-15T00:22:47;27.00;93.80
31003;DHT22;23051;-6.372;106.786;2024-01-15T00:24:50;27.00;93.70
31003;DHT22;23051;-6.372;106.786;2024-01-15T00:26:51;27.00;93.70
31003;DHT22;23051;-6.372;106.786;2024-01-15T00:28:52;27.00;93.60
31003;DHT22;23051;-6.372;106.786;2024-01-15T00:30:53;27.10;93.60
31003;DHT22;23051;-6.372;106.786;2024-01-15T00:32:54;27.10;93.60
31003;DHT22;23051;-6.372;106.786;2024-01-15T00:34:55;27.10;93.50
31003;DHT22;23051;-6.372;106.786;2024-01-15T00:36:57;27.20;93.50
31003;DHT22;23051;-6.372;106.786;2024-01-15T00:41:00;27.20;93.40
31003;DHT22;23051;-6.372;106.786;2024-01-15T00:43:02;27.20;93.70
31003;DHT22;23051;-6.372;106.786;2024-01-15T00:45:21;27.30;93.40
31003;DHT22;23051;-6.372;106.786;2024-01-15T00:47:25;27.30;93.30
31003;DHT22;23051;-6.372;106.786;2024-01-15T00:49:26;27.40;93.30
31003;DHT22;23051;-6.372;106.786;2024-01-15T00:51:27;27.40;93.20
31003;DHT22;23051;-6.372;106.786;2024-01-15T00:53:29;27.40;93.20
31003;DHT22;23051;-6.372;106.786;2024-01-15T00:55:35;27.50;93.10
31003;DHT22;23051;-6.372;106.786;2024-01-15T00:57:40;27.50;93.10
31003;DHT22;23051;-6.372;106.786;2024-01-15T00:59:44;27.60;93.10
31003;DHT22;23051;-6.372;106.786;2024-01-15T01:01:45;27.60;93.00
31003;DHT22;23051;-6.372;106.786;2024-01-15T01:03:46;27.70;93.00
31003;DHT22;23051;-6.372;106.786;2024-01-15T01:05:48;27.80;92.90
31003;DHT22;23051;-6.372;106.786;2024-01-15T01:08:00;27.80;92.80
31003;DHT22;23051;-6.372;106.786;2024-01-15T01:10:02;27.80;92.80
31003;DHT22;23051;-6.372;106.786;2024-01-15T01:12:03;27.90;92.80
31003;DHT22;23051;-6.372;106.786;2024-01-15T01:14:05;27.90;92.70
31003;DHT22;23051;-6.372;106.786;2024-01-15T01:16:06;27.90;92.70
31003;DHT22;23051;-6.372;106.786;2024-01-15T01:18:07;28.00;92.70
31003;DHT22;23051;-6.372;106.786;2024-01-15T01:20:08;28.00;92.60
31003;DHT22;23051;-6.372;106.786;2024-01-15T01:22:11;28.00;92.60
31003;DHT22;23051;-6.372;106.786;2024-01-15T01:24:12;28.10;92.60
31003;DHT22;23051;-6.372;106.786;2024-01-15T01:26:15;28.10;92.50
31003;DHT22;23051;-6.372;106.786;2024-01-15T01:28:17;28.20;92.50
31003;DHT22;23051;-6.372;106.786;2024-01-15T01:30:18;28.20;92.50
31003;DHT22;23051;-6.372;106.786;2024-01-15T01:32:19;28.20;92.40
31003;DHT22;23051;-6.372;106.786;2024-01-15T01:34:22;28.20;92.40
31003;DHT22;23051;-6.372;106.786;2024-01-15T01:36:23;28.30;92.40
31003;DHT22;23051;-6.372;106.786;2024-01-15T01:38:27;28.30;92.40
31003;DHT22;23051;-6.372;106.786;2024-01-15T01:40:30;28.30;92.40
31003;DHT22;23051;-6.372;106.786;2024-01-15T01:42:34;28.30;92.30
31003;DHT22;23051;-6.372;106.786;2024-01-15T01:44:35;28.40;92.30
31003;DHT22;23051;-6.372;106.786;2024-01-15T01:46:36;28.40;92.30
31003;DHT22;23051;-6.372;106.786;2024-01-15T01:48:41;28.40;92.20
31003;DHT22;23051;-6.372;106.786;2024-01-15T01:50:42;28.50;92.20
31003;DHT22;23051;-6.372;106.786;2024-01-15T01:52:45;28.50;92.20
31003;DHT22;23051;-6.372;106.786;2024-01-15T01:54:46;28.50;92.10
31003;DHT22;23051;-6.372;106.786;2024-01-15T01:56:47;28.60;92.20
31003;DHT22;23051;-6.372;106.786;2024-01-15T01:58:51;28.60;92.20
31003;DHT22;23051;-6.372;106.786;2024-01-15T02:00:55;28.50;92.10
31003;DHT22;23051;-6.372;106.786;2024-01-15T02:02:57;28.60;92.10
31003;DHT22;23051;-6.372;106.786;2024-01-15T02:04:58;28.60;92.10
31003;DHT22;23051;-6.372;106.786;2024-01-15T02:06:59;28.60;92.10
31003;DHT22;23051;-6.372;106.786;2024-01-15T02:09:03;28.60;92.10
31003;DHT22;23051;-6.372;106.786;2024-01-15T02:13:06;28.70;92.00
31003;DHT22;23051;-6.372;106.786;2024-01-15T02:15:08;28.70;92.00
31003;DHT22;23051;-6.372;106.786;2024-01-15T02:17:11;28.70;91.90
31003;DHT22;23051;-6.372;106.786;2024-01-15T02:19:15;28.80;91.90
31003;DHT22;23051;-6.372;106.786;2024-01-15T02:21:17;28.90;91.90
31003;DHT22;23051;-6.372;106.786;2024-01-15T02:23:18;28.90;91.90
31003;DHT22;23051;-6.372;106.786;2024-01-15T02:25:24;28.90;91.80
31003;DHT22;23051;-6.372;106.786;2024-01-15T02:27:27;28.90;91.80
31003;DHT22;23051;-6.372;106.786;2024-01-15T02:29:28;29.00;91.80
31003;DHT22;23051;-6.372;106.786;2024-01-15T02:31:32;29.00;91.80
31003;DHT22;23051;-6.372;106.786;2024-01-15T02:33:36;29.00;91.80
31003;DHT22;23051;-6.372;106.786;2024-01-15T02:35:40;29.00;91.70
31003;DHT22;23051;-6.372;106.786;2024-01-15T02:37:44;29.10;91.70
31003;DHT22;23051;-6.372;106.786;2024-01-15T02:39:47;29.10;91.70
31003;DHT22;23051;-6.372;106.786;2024-01-15T02:41:50;29.10;91.70
31003;DHT22;23051;-6.372;106.786;2024-01-15T02:43:58;29.10;91.70
31003;DHT22;23051;-6.372;106.786;2024-01-15T02:45:59;29.20;91.70
31003;DHT22;23051;-6.372;106.786;2024-01-15T02:48:02;29.20;91.60
31003;DHT22;23051;-6.372;106.786;2024-01-15T02:50:24;29.20;91.60
31003;DHT22;23051;-6.372;106.786;2024-01-15T02:52:25;29.30;91.60
31003;DHT22;23051;-6.372;106.786;2024-01-15T02:56:31;29.30;91.50
31003;DHT22;23051;-6.372;106.786;2024-01-15T02:58:35;29.40;91.50
31003;DHT22;23051;-6.372;106.786;2024-01-15T03:00:57;29.40;91.40
31003;DHT22;23051;-6.372;106.786;2024-01-15T03:03:03;29.40;91.40
31003;DHT22;23051;-6.372;106.786;2024-01-15T03:07:34;29.50;91.30
31003;DHT22;23051;-6.372;106.786;2024-01-15T03:09:36;29.60;91.30
31003;DHT22;23051;-6.372;106.786;2024-01-15T03:11:39;29.60;91.30
31003;DHT22;23051;-6.372;106.786;2024-01-15T03:13:40;29.60;91.20
31003;DHT22;23051;-6.372;106.786;2024-01-15T03:15:42;29.60;91.20
31003;DHT22;23051;-6.372;106.786;2024-01-15T03:17:48;29.70;91.20
31003;DHT22;23051;-6.372;106.786;2024-01-15T03:19:49;29.70;91.10
31003;DHT22;23051;-6.372;106.786;2024-01-15T03:21:50;29.70;91.10
31003;DHT22;23051;-6.372;106.786;2024-01-15T03:23:52;29.80;91.10
31003;DHT22;23051;-6.372;106.786;2024-01-15T03:25:53;29.80;91.00
31003;DHT22;23051;-6.372;106.786;2024-01-15T03:27:54;29.90;91.00
31003;DHT22;23051;-6.372;106.786;2024-01-15T03:29:59;29.90;91.00
31003;DHT22;23051;-6.372;106.786;2024-01-15T03:32:03;30.00;90.90
31003;DHT22;23051;-6.372;106.786;2024-01-15T03:34:04;30.00;90.90
31003;DHT22;23051;-6.372;106.786;2024-01-15T03:36:10;30.10;90.80
31003;DHT22;23051;-6.372;106.786;2024-01-15T03:38:11;30.10;90.80
31003;DHT22;23051;-6.372;106.786;2024-01-15T03:40:14;30.20;90.80
31003;DHT22;23051;-6.372;106.786;2024-01-15T03:42:18;30.20;90.70
31003;DHT22;23051;-6.372;106.786;2024-01-15T03:44:22;30.20;90.70
31003;DHT22;23051;-6.372;106.786;2024-01-15T03:48:34;30.30;90.60
31003;DHT22;23051;-6.372;106.786;2024-01-15T03:50:47;30.30;90.60
31003;DHT22;23051;-6.372;106.786;2024-01-15T03:52:53;30.30;90.50
31003;DHT22;23051;-6.372;106.786;2024-01-15T03:54:56;30.40;90.50
31003;DHT22;23051;-6.372;106.786;2024-01-15T03:57:03;30.40;90.50
31003;DHT22;23051;-6.372;106.786;2024-01-15T03:59:04;30.40;90.40
31003;DHT22;23051;-6.372;106.786;2024-01-15T04:01:09;30.50;90.40
31003;DHT22;23051;-6.372;106.786;2024-01-15T04:03:12;30.60;90.40
31003;DHT22;23051;-6.372;106.786;2024-01-15T04:07:14;30.60;90.30
31003;DHT22;23051;-6.372;106.786;2024-01-15T04:11:20;30.70;90.30
31003;DHT22;23051;-6.372;106.786;2024-01-15T04:13:23;30.70;90.20
31003;DHT22;23051;-6.372;106.786;2024-01-15T04:15:27;30.70;90.20
31003;DHT22;23051;-6.372;106.786;2024-01-15T04:17:32;30.80;90.20
31003;DHT22;23051;-6.372;106.786;2024-01-15T04:19:33;30.90;90.20
31003;DHT22;23051;-6.372;106.786;2024-01-15T04:24:02;30.90;90.10
31003;DHT22;23051;-6.372;106.786;2024-01-15T04:26:06;30.90;90.00
31003;DHT22;23051;-6.372;106.786;2024-01-15T04:28:08;31.00;90.00
31003;DHT22;23051;-6.372;106.786;2024-01-15T04:30:16;31.00;90.40
31003;DHT22;23051;-6.372;106.786;2024-01-15T04:32:20;31.00;90.00
31003;DHT22;23051;-6.372;106.786;2024-01-15T04:34:21;31.10;89.90
31003;DHT22;23051;-6.372;106.786;2024-01-15T04:36:45;31.20;89.80
31003;DHT22;23051;-6.372;106.786;2024-01-15T04:38:58;31.10;89.70
31003;DHT22;23051;-6.372;106.786;2024-01-15T04:41:00;31.20;89.70
31003;DHT22;23051;-6.372;106.786;2024-01-15T04:43:01;31.20;89.70
31003;DHT22;23051;-6.372;106.786;2024-01-15T04:45:02;31.20;89.70
31003;DHT22;23051;-6.372;106.786;2024-01-15T04:47:04;31.20;89.70
31003;DHT22;23051;-6.372;106.786;2024-01-15T04:49:05;31.20;89.80
31003;DHT22;23051;-6.372;106.786;2024-01-15T04:51:08;31.20;89.80
31003;DHT22;23051;-6.372;106.786;2024-01-15T04:53:10;31.20;89.80
31003;DHT22;23051;-6.372;106.786;2024-01-15T04:55:11;31.20;89.80
31003;DHT22;23051;-6.372;106.786;2024-01-15T04:57:14;31.20;89.80
31003;DHT22;23051;-6.372;106.786;2024-01-15T04:59:15;31.30;89.80
31003;DHT22;23051;-6.372;106.786;2024-01-15T05:01:17;31.30;89.70
31003;DHT22;23051;-6.372;106.786;2024-01-15T05:03:22;31.30;89.70
31003;DHT22;23051;-6.372;106.786;2024-01-15T05:05:23;31.30;89.60
31003;DHT22;23051;-6.372;106.786;2024-01-15T05:07:30;31.40;89.50
31003;DHT22;23051;-6.372;106.786;2024-01-15T05:09:48;31.60;89.30
31003;DHT22;23051;-6.372;106.786;2024-01-15T05:11:52;31.90;88.70
31003;DHT22;23051;-6.372;106.786;2024-01-15T05:13:53;32.10;88.20
31003;DHT22;23051;-6.372;106.786;2024-01-15T05:15:57;32.30;87.80
31003;DHT22;23051;-6.372;106.786;2024-01-15T05:18:00;32.50;87.20
31003;DHT22;23051;-6.372;106.786;2024-01-15T05:20:07;32.60;86.70
31003;DHT22;23051;-6.372;106.786;2024-01-15T05:22:12;32.80;86.50
31003;DHT22;23051;-6.372;106.786;2024-01-15T05:24:28;33.00;86.10
31003;DHT22;23051;-6.372;106.786;2024-01-15T05:26:29;33.20;85.60
31003;DHT22;23051;-6.372;106.786;2024-01-15T05:28:31;33.30;85.20
31003;DHT22;23051;-6.372;106.786;2024-01-15T05:30:32;33.50;85.00
31003;DHT22;23051;-6.372;106.786;2024-01-15T05:32:33;33.50;84.70
31003;DHT22;23051;-6.372;106.786;2024-01-15T05:34:38;33.70;84.60
31003;DHT22;23051;-6.372;106.786;2024-01-15T05:36:41;33.80;84.40
31003;DHT22;23051;-6.372;106.786;2024-01-15T05:38:43;33.90;84.20
31003;DHT22;23051;-6.372;106.786;2024-01-15T05:40:47;34.10;84.00
31003;DHT22;23051;-6.372;106.786;2024-01-15T05:42:49;34.20;83.60
31003;DHT22;23051;-6.372;106.786;2024-01-15T05:44:56;34.40;83.30
31003;DHT22;23051;-6.372;106.786;2024-01-15T05:47:03;34.50;83.00
31003;DHT22;23051;-6.372;106.786;2024-01-15T05:49:04;34.50;82.80
31003;DHT22;23051;-6.372;106.786;2024-01-15T05:51:08;34.60;82.80
31003;DHT22;23051;-6.372;106.786;2024-01-15T05:53:12;34.70;82.80
31003;DHT22;23051;-6.372;106.786;2024-01-15T05:55:13;34.70;82.80
31003;DHT22;23051;-6.372;106.786;2024-01-15T05:57:14;34.70;82.80
31003;DHT22;23051;-6.372;106.786;2024-01-15T05:59:15;34.80;82.80
31003;DHT22;23051;-6.372;106.786;2024-01-15T06:01:19;34.80;82.70
31003;DHT22;23051;-6.372;106.786;2024-01-15T06:03:20;34.80;82.60
31003;DHT22;23051;-6.372;106.786;2024-01-15T06:05:21;34.90;82.60
31003;DHT22;23051;-6.372;106.786;2024-01-15T06:07:22;34.90;82.70
31003;DHT22;23051;-6.372;106.786;2024-01-15T06:09:24;34.90;82.70
31003;DHT22;23051;-6.372;106.786;2024-01-15T06:11:29;35.00;82.70
31003;DHT22;23051;-6.372;106.786;2024-01-15T06:13:31;34.90;82.60
31003;DHT22;23051;-6.372;106.786;2024-01-15T06:15:34;34.90;82.70
31003;DHT22;23051;-6.372;106.786;2024-01-15T06:17:37;34.80;83.00
31003;DHT22;23051;-6.372;106.786;2024-01-15T06:19:40;34.60;83.30
31003;DHT22;23051;-6.372;106.786;2024-01-15T06:21:44;34.50;84.00
31003;DHT22;23051;-6.372;106.786;2024-01-15T06:23:45;34.40;84.10
31003;DHT22;23051;-6.372;106.786;2024-01-15T06:25:47;34.30;84.40
31003;DHT22;23051;-6.372;106.786;2024-01-15T06:27:50;34.20;84.60
31003;DHT22;23051;-6.372;106.786;2024-01-15T06:29:54;34.10;84.80
31003;DHT22;23051;-6.372;106.786;2024-01-15T06:33:57;34.00;84.80
31003;DHT22;23051;-6.372;106.786;2024-01-15T06:36:01;34.00;85.00
31003;DHT22;23051;-6.372;106.786;2024-01-15T06:38:07;33.90;85.00
31003;DHT22;23051;-6.372;106.786;2024-01-15T06:40:10;33.90;85.20
31003;DHT22;23051;-6.372;106.786;2024-01-15T06:42:15;33.90;85.40
31003;DHT22;23051;-6.372;106.786;2024-01-15T06:44:18;33.80;85.40
31003;DHT22;23051;-6.372;106.786;2024-01-15T06:46:22;33.80;85.40
31003;DHT22;23051;-6.372;106.786;2024-01-15T06:48:23;33.80;85.40
31003;DHT22;23051;-6.372;106.786;2024-01-15T06:50:27;33.80;85.50
31003;DHT22;23051;-6.372;106.786;2024-01-15T06:52:28;33.80;85.50
31003;DHT22;23051;-6.372;106.786;2024-01-15T06:54:29;33.70;85.50
31003;DHT22;23051;-6.372;106.786;2024-01-15T06:56:33;33.70;85.50
31003;DHT22;23051;-6.372;106.786;2024-01-15T06:58:34;33.70;85.60
31003;DHT22;23051;-6.372;106.786;2024-01-15T07:00:35;33.70;85.70
31003;DHT22;23051;-6.372;106.786;2024-01-15T07:02:40;33.70;85.80
31003;DHT22;23051;-6.372;106.786;2024-01-15T07:04:41;33.60;85.80
31003;DHT22;23051;-6.372;106.786;2024-01-15T07:06:46;33.50;86.10
31003;DHT22;23051;-6.372;106.786;2024-01-15T07:08:50;33.40;86.30
31003;DHT22;23051;-6.372;106.786;2024-01-15T07:10:54;33.40;86.60
31003;DHT22;23051;-6.372;106.786;2024-01-15T07:12:55;33.30;86.70
31003;DHT22;23051;-6.372;106.786;2024-01-15T07:14:56;33.30;86.80
31003;DHT22;23051;-6.372;106.786;2024-01-15T07:17:00;33.30;86.80
31003;DHT22;23051;-6.372;106.786;2024-01-15T07:19:02;33.30;86.90
31003;DHT22;23051;-6.372;106.786;2024-01-15T07:21:06;33.20;86.90
31003;DHT22;23051;-6.372;106.786;2024-01-15T07:23:07;33.20;87.10
31003;DHT22;23051;-6.372;106.786;2024-01-15T07:25:10;33.10;87.20
31003;DHT22;23051;-6.372;106.786;2024-01-15T07:27:13;33.00;87.30
31003;DHT22;23051;-6.372;106.786;2024-01-15T07:31:17;32.80;87.90
31003;DHT22;23051;-6.372;106.786;2024-01-15T07:33:19;32.70;88.10
31003;DHT22;23051;-6.372;106.786;2024-01-15T07:35:22;32.70;88.40
31003;DHT22;23051;-6.372;106.786;2024-01-15T07:37:28;32.60;88.50
31003;DHT22;23051;-6.372;106.786;2024-01-15T07:39:29;32.50;88.60
31003;DHT22;23051;-6.372;106.786;2024-01-15T07:41:32;32.50;88.80
31003;DHT22;23051;-6.372;106.786;2024-01-15T07:43:36;32.50;88.90
31003;DHT22;23051;-6.372;106.786;2024-01-15T07:45:37;32.40;89.00
31003;DHT22;23051;-6.372;106.786;2024-01-15T07:47:38;32.40;89.10
31003;DHT22;23051;-6.372;106.786;2024-01-15T07:49:39;32.40;89.20
31003;DHT22;23051;-6.372;106.786;2024-01-15T07:51:41;32.40;89.10
31003;DHT22;23051;-6.372;106.786;2024-01-15T07:53:44;32.40;88.90
31003;DHT22;23051;-6.372;106.786;2024-01-15T07:55:48;32.50;88.70
31003;DHT22;23051;-6.372;106.786;2024-01-15T07:57:51;32.60;88.50
31003;DHT22;23051;-6.372;106.786;2024-01-15T07:59:54;32.70;88.30
31003;DHT22;23051;-6.372;106.786;2024-01-15T08:03:59;32.70;87.90
31003;DHT22;23051;-6.372;106.786;2024-01-15T08:06:05;32.80;87.90
31003;DHT22;23051;-6.372;106.786;2024-01-15T08:08:12;32.80;87.80
31003;DHT22;23051;-6.372;106.786;2024-01-15T08:10:14;32.80;87.70
31003;DHT22;23051;-6.372;106.786;2024-01-15T08:12:15;32.80;87.70
31003;DHT22;23051;-6.372;106.786;2024-01-15T08:14:17;32.90;87.70
31003;DHT22;23051;-6.372;106.786;2024-01-15T08:16:18;32.80;87.70
31003;DHT22;23051;-6.372;106.786;2024-01-15T08:18:23;32.70;87.70
31003;DHT22;23051;-6.372;106.786;2024-01-15T08:20:24;32.70;87.90
31003;DHT22;23051;-6.372;106.786;2024-01-15T08:22:30;32.70;87.90
31003;DHT22;23051;-6.372;106.786;2024-01-15T08:24:32;32.60;88.80
31003;DHT22;23051;-6.372;106.786;2024-01-15T08:26:34;32.60;88.20
31003;DHT22;23051;-6.372;106.786;2024-01-15T08:28:35;32.50;88.30
31003;DHT22;23051;-6.372;106.786;2024-01-15T08:30:36;32.50;88.50
31003;DHT22;23051;-6.372;106.786;2024-01-15T08:32:37;32.50;88.50
31003;DHT22;23051;-6.372;106.786;2024-01-15T08:34:42;32.50;88.70
31003;DHT22;23051;-6.372;106.786;2024-01-15T08:36:48;32.50;88.60
31003;DHT22;23051;-6.372;106.786;2024-01-15T08:38:51;32.40;89.40
31003;DHT22;23051;-6.372;106.786;2024-01-15T08:40:55;32.30;88.80
31003;DHT22;23051;-6.372;106.786;2024-01-15T08:42:59;32.30;88.90
31003;DHT22;23051;-6.372;106.786;2024-01-15T08:45:00;32.30;89.00
31003;DHT22;23051;-6.372;106.786;2024-01-15T08:47:03;32.30;89.00
31003;DHT22;23051;-6.372;106.786;2024-01-15T08:49:07;32.30;89.00
31003;DHT22;23051;-6.372;106.786;2024-01-15T08:51:09;32.30;89.00
31003;DHT22;23051;-6.372;106.786;2024-01-15T08:53:10;32.30;89.00
31003;DHT22;23051;-6.372;106.786;2024-01-15T08:55:11;32.30;89.10
31003;DHT22;23051;-6.372;106.786;2024-01-15T08:57:13;32.30;89.00
31003;DHT22;23051;-6.372;106.786;2024-01-15T08:59:17;32.30;89.00
31003;DHT22;23051;-6.372;106.786;2024-01-15T09:01:27;32.20;89.00
31003;DHT22;23051;-6.372;106.786;2024-01-15T09:03:31;32.20;89.00
31003;DHT22;23051;-6.372;106.786;2024-01-15T09:05:36;32.10;89.00
31003;DHT22;23051;-6.372;106.786;2024-01-15T09:07:43;32.10;89.20
31003;DHT22;23051;-6.372;106.786;2024-01-15T09:09:47;32.10;89.30
31003;DHT22;23051;-6.372;106.786;2024-01-15T09:11:48;32.10;89.20
31003;DHT22;23051;-6.372;106.786;2024-01-15T09:15:54;32.10;89.20
31003;DHT22;23051;-6.372;106.786;2024-01-15T09:17:58;32.10;89.20
31003;DHT22;23051;-6.372;106.786;2024-01-15T09:20:00;32.10;89.20
31003;DHT22;23051;-6.372;106.786;2024-01-15T09:22:01;32.10;89.20
31003;DHT22;23051;-6.372;106.786;2024-01-15T09:26:07;32.10;89.10
31003;DHT22;23051;-6.372;106.786;2024-01-15T09:28:09;32.10;89.00
31003;DHT22;23051;-6.372;106.786;2024-01-15T09:30:12;32.10;89.00
31003;DHT22;23051;-6.372;106.786;2024-01-15T09:32:13;32.10;89.00
31003;DHT22;23051;-6.372;106.786;2024-01-15T09:34:17;32.10;89.00
31003;DHT22;23051;-6.372;106.786;2024-01-15T09:36:18;32.10;89.00
31003;DHT22;23051;-6.372;106.786;2024-01-15T09:38:20;32.10;88.90
31003;DHT22;23051;-6.372;106.786;2024-01-15T09:40:21;32.10;89.70
31003;DHT22;23051;-6.372;106.786;2024-01-15T09:42:23;32.10;88.80
31003;DHT22;23051;-6.372;106.786;2024-01-15T09:44:27;32.10;88.80
31003;DHT22;23051;-6.372;106.786;2024-01-15T09:46:32;32.10;88.70
31003;DHT22;23051;-6.372;106.786;2024-01-15T09:48:33;32.10;88.60
31003;DHT22;23051;-6.372;106.786;2024-01-15T09:50:38;32.10;88.70
31003;DHT22;23051;-6.372;106.786;2024-01-15T09:52:40;32.10;88.80
31003;DHT22;23051;-6.372;106.786;2024-01-15T09:54:43;32.10;88.80
31003;DHT22;23051;-6.372;106.786;2024-01-15T09:56:45;32.00;88.90
31003;DHT22;23051;-6.372;106.786;2024-01-15T09:58:47;32.00;89.00
31003;DHT22;23051;-6.372;106.786;2024-01-15T10:00:49;32.00;89.00
31003;DHT22;23051;-6.372;106.786;2024-01-15T10:02:51;31.90;89.10
31003;DHT22;23051;-6.372;106.786;2024-01-15T10:04:52;31.90;89.10
31003;DHT22;23051;-6.372;106.786;2024-01-15T10:06:55;31.90;89.30
31003;DHT22;23051;-6.372;106.786;2024-01-15T10:08:58;31.80;89.30
31003;DHT22;23051;-6.372;106.786;2024-01-15T10:10:59;31.80;89.50
31003;DHT22;23051;-6.372;106.786;2024-01-15T10:13:03;31.80;89.50
31003;DHT22;23051;-6.372;106.786;2024-01-15T10:15:05;31.70;89.50
31003;DHT22;23051;-6.372;106.786;2024-01-15T10:19:10;31.70;89.80
31003;DHT22;23051;-6.372;106.786;2024-01-15T10:21:11;31.70;89.90
31003;DHT22;23051;-6.372;106.786;2024-01-15T10:23:13;31.60;89.90
31003;DHT22;23051;-6.372;106.786;2024-01-15T10:25:15;31.60;90.00
31003;DHT22;23051;-6.372;106.786;2024-01-15T10:27:24;31.50;90.00
31003;DHT22;23051;-6.372;106.786;2024-01-15T10:29:25;31.50;90.10
31003;DHT22;23051;-6.372;106.786;2024-01-15T10:31:29;31.50;90.10
31003;DHT22;23051;-6.372;106.786;2024-01-15T10:33:31;31.40;90.10
31003;DHT22;23051;-6.372;106.786;2024-01-15T10:35:35;31.40;90.20
31003;DHT22;23051;-6.372;106.786;2024-01-15T10:37:36;31.40;90.20
31003;DHT22;23051;-6.372;106.786;2024-01-15T10:39:38;31.30;90.20
31003;DHT22;23051;-6.372;106.786;2024-01-15T10:41:41;31.30;90.20
31003;DHT22;23051;-6.372;106.786;2024-01-15T10:43:43;31.30;90.30
31003;DHT22;23051;-6.372;106.786;2024-01-15T10:45:45;31.30;90.30
31003;DHT22;23051;-6.372;106.786;2024-01-15T10:47:49;31.30;90.30
31003;DHT22;23051;-6.372;106.786;2024-01-15T10:49:53;31.20;90.30
31003;DHT22;23051;-6.372;106.786;2024-01-15T10:51:56;31.20;90.30
31003;DHT22;23051;-6.372;106.786;2024-01-15T10:54:00;31.20;90.40
31003;DHT22;23051;-6.372;106.786;2024-01-15T10:56:02;31.10;90.40
31003;DHT22;23051;-6.372;106.786;2024-01-15T10:58:09;31.10;90.40
31003;DHT22;23051;-6.372;106.786;2024-01-15T11:00:11;31.10;90.40
31003;DHT22;23051;-6.372;106.786;2024-01-15T11:02:17;31.10;90.50
31003;DHT22;23051;-6.372;106.786;2024-01-15T11:04:19;31.10;90.50
31003;DHT22;23051;-6.372;106.786;2024-01-15T11:06:23;31.00;90.50
31003;DHT22;23051;-6.372;106.786;2024-01-15T11:08:25;31.00;90.50
31003;DHT22;23051;-6.372;106.786;2024-01-15T11:12:36;31.00;90.60
31003;DHT22;23051;-6.372;106.786;2024-01-15T11:21:19;31.00;90.60
31003;DHT22;23051;-6.372;106.786;2024-01-15T11:23:05;30.90;90.50
31003;DHT22;23051;-6.372;106.786;2024-01-15T11:27:12;30.90;90.60
31003;DHT22;23051;-6.372;106.786;2024-01-15T11:31:19;30.90;90.70
31003;DHT22;23051;-6.372;106.786;2024-01-15T11:35:25;30.80;90.70
31003;DHT22;23051;-6.372;106.786;2024-01-15T11:39:52;30.70;90.70
31003;DHT22;23051;-6.372;106.786;2024-01-15T11:41:54;30.70;90.80
31003;DHT22;23051;-6.372;106.786;2024-01-15T11:43:56;30.60;90.80
31003;DHT22;23051;-6.372;106.786;2024-01-15T11:45:57;30.60;90.80
31003;DHT22;23051;-6.372;106.786;2024-01-15T11:50:04;30.50;90.90
31003;DHT22;23051;-6.372;106.786;2024-01-15T11:52:06;30.50;90.90
31003;DHT22;23051;-6.372;106.786;2024-01-15T11:54:08;30.50;90.90
31003;DHT22;23051;-6.372;106.786;2024-01-15T11:56:14;30.50;91.30
31003;DHT22;23051;-6.372;106.786;2024-01-15T11:58:18;30.50;90.90
31003;DHT22;23051;-6.372;106.786;2024-01-15T12:00:20;30.40;90.90
31003;DHT22;23051;-6.372;106.786;2024-01-15T12:02:24;30.40;91.00
31003;DHT22;23051;-6.372;106.786;2024-01-15T12:04:25;30.40;91.00
31003;DHT22;23051;-6.372;106.786;2024-01-15T12:06:27;30.40;91.00
31003;DHT22;23051;-6.372;106.786;2024-01-15T12:08:28;30.30;91.00
31003;DHT22;23051;-6.372;106.786;2024-01-15T12:14:57;30.30;91.00
31003;DHT22;23051;-6.372;106.786;2024-01-15T12:16:58;30.30;91.00
31003;DHT22;23051;-6.372;106.786;2024-01-15T12:18:59;30.30;91.00
31003;DHT22;23051;-6.372;106.786;2024-01-15T12:21:00;30.20;91.00
31003;DHT22;23051;-6.372;106.786;2024-01-15T12:23:02;30.20;91.00
31003;DHT22;23051;-6.372;106.786;2024-01-15T12:25:04;30.20;91.10
31003;DHT22;23051;-6.372;106.786;2024-01-15T12:27:07;30.20;91.10
31003;DHT22;23051;-6.372;106.786;2024-01-15T12:29:11;30.10;91.10
31003;DHT22;23051;-6.372;106.786;2024-01-15T12:31:15;30.10;91.10
31003;DHT22;23051;-6.372;106.786;2024-01-15T12:33:17;30.10;91.20
31003;DHT22;23051;-6.372;106.786;2024-01-15T12:35:38;30.00;91.10
31003;DHT22;23051;-6.372;106.786;2024-01-15T12:37:42;30.00;91.20
31003;DHT22;23051;-6.372;106.786;2024-01-15T12:39:47;30.00;91.20
31003;DHT22;23051;-6.372;106.786;2024-01-15T12:41:51;30.00;91.20
31003;DHT22;23051;-6.372;106.786;2024-01-15T12:43:52;30.00;91.20
31003;DHT22;23051;-6.372;106.786;2024-01-15T12:45:59;30.00;91.20
31003;DHT22;23051;-6.372;106.786;2024-01-15T12:48:00;30.00;91.20
31003;DHT22;23051;-6.372;106.786;2024-01-15T12:50:01;29.90;91.20
31003;DHT22;23051;-6.372;106.786;2024-01-15T12:52:03;30.00;91.20
31003;DHT22;23051;-6.372;106.786;2024-01-15T12:54:04;29.90;91.20
31003;DHT22;23051;-6.372;106.786;2024-01-15T12:56:05;29.90;91.30
31003;DHT22;23051;-6.372;106.786;2024-01-15T12:58:09;29.90;91.30
31003;DHT22;23051;-6.372;106.786;2024-01-15T13:00:14;29.90;91.30
31003;DHT22;23051;-6.372;106.786;2024-01-15T13:02:16;29.90;91.30
31003;DHT22;23051;-6.372;106.786;2024-01-15T13:06:21;29.80;91.30
31003;DHT22;23051;-6.372;106.786;2024-01-15T13:08:24;29.80;91.30
31003;DHT22;23051;-6.372;106.786;2024-01-15T13:10:27;29.80;91.30
31003;DHT22;23051;-6.372;106.786;2024-01-15T13:12:30;29.80;91.30
31003;DHT22;23051;-6.372;106.786;2024-01-15T13:16:42;29.80;91.40
31003;DHT22;23051;-6.372;106.786;2024-01-15T13:18:43;29.70;91.30
31003;DHT22;23051;-6.372;106.786;2024-01-15T13:20:44;29.70;91.30
31003;DHT22;23051;-6.372;106.786;2024-01-15T13:22:47;29.70;91.40
31003;DHT22;23051;-6.372;106.786;2024-01-15T13:24:51;29.70;91.40
31003;DHT22;23051;-6.372;106.786;2024-01-15T13:26:53;29.70;91.40
31003;DHT22;23051;-6.372;106.786;2024-01-15T13:28:57;29.70;91.40
31003;DHT22;23051;-6.372;106.786;2024-01-15T13:31:01;29.70;91.40